createdAt,value
2018-07-06T00:01:07.723Z,101452.20
2018-07-06T00:04:49.248Z,101454.33
2018-07-06T00:08:30.665Z,101456.65
2018-07-06T00:12:12.035Z,101459.75
2018-07-06T00:15:53.730Z,101464.88
2018-07-06T00:19:35.228Z,101465.74
2018-07-06T00:23:16.776Z,101474.58
2018-07-06T00:26:58.153Z,101475.59
2018-07-06T00:30:39.551Z,101470.30
2018-07-06T00:34:20.840Z,101474.40
2018-07-06T00:38:02.128Z,101476.77
2018-07-06T00:41:43.697Z,101476.66
2018-07-06T00:45:25.011Z,101489.59
2018-07-06T00:49:06.326Z,101483.48
2018-07-06T00:52:47.799Z,101481.27
2018-07-06T00:56:29.176Z,101482.14
2018-07-06T01:00:10.542Z,101480.33
2018-07-06T01:03:52.107Z,101482.92
2018-07-06T01:07:33.574Z,101491.70
2018-07-06T01:11:15.140Z,101495.19
2018-07-06T01:14:56.574Z,101493.73
2018-07-06T01:18:37.861Z,101494.73
2018-07-06T01:22:19.178Z,101499.97
2018-07-06T01:26:00.528Z,101515.36
2018-07-06T01:29:41.718Z,101520.73
2018-07-06T01:33:23.044Z,101519.88
2018-07-06T01:37:04.398Z,101523.27
2018-07-06T01:40:45.899Z,101527.27
2018-07-06T01:44:27.496Z,101525.69
2018-07-06T01:48:09.221Z,101521.39
2018-07-06T01:51:50.621Z,101525.64
2018-07-06T01:55:31.958Z,101525.33
2018-07-06T01:59:13.333Z,101528.56
2018-07-06T02:02:54.724Z,101527.62
2018-07-06T02:06:36.085Z,101521.50
2018-07-06T02:10:17.372Z,101529.41
2018-07-06T02:13:58.728Z,101538.36
2018-07-06T02:17:40.072Z,101530.61
2018-07-06T02:21:15.524Z,101531.74
2018-07-06T02:24:56.942Z,101528.88
2018-07-06T02:28:38.544Z,101536.01
2018-07-06T02:32:19.887Z,101537.16
2018-07-06T02:36:01.302Z,101536.66
2018-07-06T02:39:42.613Z,101541.52
2018-07-06T02:43:23.964Z,101534.11
2018-07-06T02:47:05.401Z,101532.28
2018-07-06T02:50:46.811Z,101537.89
2018-07-06T02:54:28.316Z,101534.94
2018-07-06T02:58:09.856Z,101533.18
2018-07-06T03:01:51.284Z,101532.50
2018-07-06T03:05:32.574Z,101537.09
2018-07-06T03:09:13.808Z,101538.30
2018-07-06T03:12:55.296Z,101539.39
2018-07-06T03:16:36.773Z,101531.53
2018-07-06T03:20:18.138Z,101529.01
2018-07-06T03:23:59.600Z,101546.11
2018-07-06T03:27:40.926Z,101550.39
2018-07-06T03:31:24.027Z,101554.83
2018-07-06T03:35:05.500Z,101545.86
2018-07-06T03:38:47.302Z,101559.16
2018-07-06T03:42:28.948Z,101558.50
2018-07-06T03:46:10.310Z,101562.69
2018-07-06T03:49:51.803Z,101567.57
2018-07-06T03:53:33.202Z,101573.03
2018-07-06T03:57:14.642Z,101576.77
2018-07-06T04:00:56.192Z,101589.82
2018-07-06T04:04:44.556Z,101600.33
2018-07-06T04:08:26.081Z,101601.31
2018-07-06T04:12:07.335Z,101604.19
2018-07-06T04:15:48.573Z,101618.33
2018-07-06T04:19:29.953Z,101623.41
2018-07-06T04:23:11.530Z,101627.57
2018-07-06T04:26:53.103Z,101630.67
2018-07-06T04:30:34.461Z,101637.68
2018-07-06T04:34:15.725Z,101641.30
2018-07-06T04:37:58.567Z,101637.20
2018-07-06T04:41:39.848Z,101640.42
2018-07-06T04:45:21.302Z,101642.83
2018-07-06T04:49:02.777Z,101637.63
2018-07-06T04:52:44.261Z,101647.81
2018-07-06T04:56:26.145Z,101661.49
2018-07-06T05:00:07.317Z,101665.67
2018-07-06T05:03:48.864Z,101662.12
2018-07-06T05:07:30.553Z,101660.71
2018-07-06T05:11:11.969Z,101664.59
2018-07-06T05:14:53.519Z,101658.77
2018-07-06T05:18:34.872Z,101657.58
2018-07-06T05:22:16.523Z,101664.92
2018-07-06T05:25:57.833Z,101667.58
2018-07-06T05:29:39.242Z,101667.62
2018-07-06T05:33:21.003Z,101672.25
2018-07-06T05:37:02.586Z,101675.28
2018-07-06T05:40:43.975Z,101676.78
2018-07-06T05:44:25.590Z,101688.66
2018-07-06T05:48:07.160Z,101681.80
2018-07-06T05:51:48.639Z,101688.02
2018-07-06T05:55:30.156Z,101690.42
2018-07-06T05:59:11.410Z,101690.48
2018-07-06T06:02:52.754Z,101690.07
2018-07-06T06:06:34.380Z,101689.97
2018-07-06T06:09:58.893Z,101696.80
2018-07-06T06:13:26.733Z,101706.22
2018-07-06T06:16:51.196Z,101707.97
2018-07-06T06:20:17.218Z,101715.69
2018-07-06T06:23:41.643Z,101712.88
2018-07-06T06:27:06.107Z,101715.94
2018-07-06T06:30:30.636Z,101716.20
2018-07-06T06:33:56.435Z,101720.03
2018-07-06T06:37:20.759Z,101722.16
2018-07-06T06:40:45.223Z,101728.21
2018-07-06T06:44:09.668Z,101732.91
2018-07-06T06:47:34.132Z,101735.59
2018-07-06T06:50:58.574Z,101738.67
2018-07-06T06:54:23.000Z,101733.27
2018-07-06T06:57:47.446Z,101735.10
2018-07-06T07:01:11.912Z,101739.96
2018-07-06T07:04:36.422Z,101744.41
2018-07-06T07:08:00.943Z,101746.83
2018-07-06T07:11:25.464Z,101756.47
2018-07-06T07:14:49.918Z,101758.45
2018-07-06T07:18:14.374Z,101761.82
2018-07-06T07:21:38.848Z,101762.13
2018-07-06T07:25:03.393Z,101767.02
2018-07-06T07:28:27.966Z,101766.27
2018-07-06T07:31:52.685Z,101773.94
2018-07-06T07:35:17.266Z,101784.38
2018-07-06T07:38:41.989Z,101781.81
2018-07-06T07:42:06.509Z,101777.41
2018-07-06T07:45:31.026Z,101778.28
2018-07-06T07:48:55.535Z,101780.45
2018-07-06T07:52:37.110Z,101777.41
2018-07-06T07:56:01.591Z,101773.85
2018-07-06T07:59:27.374Z,101770.44
2018-07-06T08:02:51.812Z,101769.31
2018-07-06T08:06:16.226Z,101770.56
2018-07-06T08:09:40.746Z,101775.08
2018-07-06T08:13:05.276Z,101777.60
2018-07-06T08:16:29.684Z,101776.36
2018-07-06T08:19:54.151Z,101777.67
2018-07-06T08:23:18.576Z,101781.62
2018-07-06T08:26:43.063Z,101778.73
2018-07-06T08:30:07.878Z,101783.59
2018-07-06T08:33:38.856Z,101786.37
2018-07-06T08:37:48.651Z,101791.16
2018-07-06T08:41:13.058Z,101786.14
2018-07-06T08:44:37.517Z,101789.16
2018-07-06T08:48:02.017Z,101788.34
2018-07-06T08:51:26.502Z,101798.50
2018-07-06T08:54:51.801Z,101790.30
2018-07-06T08:58:16.306Z,101788.25
2018-07-06T09:01:40.683Z,101793.07
2018-07-06T09:05:05.923Z,101791.34
2018-07-06T09:08:30.347Z,101798.22
2018-07-06T09:11:54.768Z,101798.83
2018-07-06T09:15:19.199Z,101800.13
2018-07-06T09:18:43.695Z,101801.16
2018-07-06T09:22:08.224Z,101804.88
2018-07-06T09:25:32.830Z,101801.28
2018-07-06T09:28:57.295Z,101800.77
2018-07-06T09:32:21.771Z,101801.52
2018-07-06T09:35:46.263Z,101799.14
2018-07-06T09:39:12.434Z,101796.38
2018-07-06T09:42:36.831Z,101802.98
2018-07-06T09:46:01.251Z,101816.66
2018-07-06T09:49:25.815Z,101810.20
2018-07-06T09:52:50.234Z,101804.30
2018-07-06T09:56:14.652Z,101799.23
2018-07-06T09:59:39.085Z,101801.44
2018-07-06T10:03:03.514Z,101793.76
2018-07-06T10:06:27.946Z,101798.19
2018-07-06T10:09:52.508Z,101800.19
2018-07-06T10:13:16.971Z,101800.33
2018-07-06T10:16:41.460Z,101793.36
2018-07-06T10:20:06.159Z,101793.66
2018-07-06T10:23:30.630Z,101798.63
2018-07-06T10:26:55.138Z,101795.45
2018-07-06T10:31:39.213Z,101800.63
2018-07-06T10:35:03.631Z,101792.89
2018-07-06T10:38:28.015Z,101792.11
2018-07-06T10:41:52.450Z,101793.00
2018-07-06T10:45:16.847Z,101796.45
2018-07-06T10:48:41.250Z,101795.27
2018-07-06T10:52:05.840Z,101794.70
2018-07-06T10:55:30.271Z,101799.41
2018-07-06T10:58:54.776Z,101797.69
2018-07-06T11:02:19.153Z,101805.66
2018-07-06T11:05:43.593Z,101799.95
2018-07-06T11:09:08.051Z,101800.63
2018-07-06T11:12:32.492Z,101803.24
2018-07-06T11:15:57.199Z,101794.33
2018-07-06T11:19:21.620Z,101799.05
2018-07-06T11:22:46.100Z,101797.00
2018-07-06T11:26:10.526Z,101794.73
2018-07-06T11:29:34.921Z,101796.77
2018-07-06T11:32:59.378Z,101795.03
2018-07-06T11:36:24.218Z,101796.81
2018-07-06T11:39:48.686Z,101796.73
2018-07-06T11:43:13.097Z,101799.58
2018-07-06T11:46:37.715Z,101797.45
2018-07-06T11:50:02.327Z,101791.33
2018-07-06T11:53:32.002Z,101794.57
2018-07-06T11:56:56.868Z,101794.38
2018-07-06T12:00:21.330Z,101791.32
2018-07-06T12:03:46.200Z,101792.53
2018-07-06T12:07:11.185Z,101790.91
2018-07-06T12:10:36.140Z,101786.13
2018-07-06T12:14:00.631Z,101790.27
2018-07-06T12:17:25.263Z,101783.97
2018-07-06T12:20:50.045Z,101784.08
2018-07-06T12:24:14.461Z,101778.31
2018-07-06T12:27:39.325Z,101791.27
2018-07-06T12:31:04.294Z,101780.94
2018-07-06T12:34:28.724Z,101784.90
2018-07-06T12:37:53.193Z,101782.70
2018-07-06T12:41:17.814Z,101779.98
2018-07-06T12:44:42.223Z,101784.44
2018-07-06T12:48:06.791Z,101772.63
2018-07-06T12:51:31.306Z,101767.50
2018-07-06T12:54:55.818Z,101776.06
2018-07-06T12:58:20.503Z,101771.16
2018-07-06T13:01:45.043Z,101771.14
2018-07-06T13:05:09.658Z,101767.11
2018-07-06T13:08:34.198Z,101771.78
2018-07-06T13:11:58.698Z,101784.61
2018-07-06T13:15:23.168Z,101782.14
2018-07-06T13:18:47.672Z,101787.73
2018-07-06T13:22:12.481Z,101781.45
2018-07-06T13:25:36.982Z,101781.25
2018-07-06T13:29:01.421Z,101780.80
2018-07-06T13:32:25.912Z,101779.51
2018-07-06T13:35:50.399Z,101780.23
2018-07-06T13:39:15.090Z,101775.63
2018-07-06T13:42:39.845Z,101772.06
2018-07-06T13:46:04.321Z,101779.91
2018-07-06T13:49:29.012Z,101779.52
2018-07-06T13:52:53.641Z,101782.75
2018-07-06T13:56:18.093Z,101781.48
2018-07-06T13:59:42.583Z,101782.49
2018-07-06T14:03:07.098Z,101785.94
2018-07-06T14:06:31.765Z,101779.48
2018-07-06T14:09:56.345Z,101785.81
2018-07-06T14:13:21.047Z,101787.67
2018-07-06T14:16:45.560Z,101782.52
2018-07-06T14:20:10.125Z,101787.37
2018-07-06T14:23:34.615Z,101780.31
2018-07-06T14:26:59.259Z,101779.05
2018-07-06T14:30:24.881Z,101776.33
2018-07-06T14:33:49.460Z,101774.75
2018-07-06T14:37:13.965Z,101778.98
2018-07-06T14:40:38.504Z,101773.58
2018-07-06T14:44:03.029Z,101778.52
2018-07-06T14:47:27.547Z,101772.09
2018-07-06T14:50:52.258Z,101772.31
2018-07-06T14:54:16.785Z,101777.41
2018-07-06T14:57:41.323Z,101782.48
2018-07-06T15:01:05.862Z,101781.80
2018-07-06T15:04:30.480Z,101779.69
2018-07-06T15:07:55.169Z,101775.43
2018-07-06T15:11:19.669Z,101781.55
2018-07-06T15:14:44.217Z,101782.03
2018-07-06T15:18:08.730Z,101788.12
2018-07-06T15:21:33.376Z,101786.69
2018-07-06T15:24:57.984Z,101792.05
2018-07-06T15:28:22.557Z,101793.31
2018-07-06T15:31:47.206Z,101794.52
2018-07-06T15:35:11.759Z,101796.39
2018-07-06T15:38:36.196Z,101799.11
2018-07-06T15:42:00.855Z,101798.76
2018-07-06T15:45:25.527Z,101795.42
2018-07-06T15:48:50.119Z,101802.33
2018-07-06T15:52:14.656Z,101800.05
2018-07-06T15:55:39.613Z,101796.80
2018-07-06T15:59:09.738Z,101798.32
2018-07-06T16:02:34.370Z,101806.58
2018-07-06T16:05:58.875Z,101799.91
2018-07-06T16:09:23.306Z,101796.88
2018-07-06T16:12:47.768Z,101805.37
2018-07-06T16:16:12.279Z,101807.98
2018-07-06T16:19:36.750Z,101805.34
2018-07-06T16:23:01.231Z,101799.41
2018-07-06T16:26:28.105Z,101795.98
2018-07-06T16:29:52.573Z,101796.52
2018-07-06T16:33:17.078Z,101795.27
2018-07-06T16:36:41.560Z,101808.16
2018-07-06T16:40:06.079Z,101791.21
2018-07-06T16:43:30.565Z,101793.50
2018-07-06T16:46:55.074Z,101792.48
2018-07-06T16:50:19.522Z,101789.55
2018-07-06T16:53:44.926Z,101784.53
2018-07-06T16:57:09.425Z,101787.23
2018-07-06T17:00:34.038Z,101783.59
2018-07-06T17:03:58.499Z,101790.25
2018-07-06T17:07:23.177Z,101791.87
2018-07-06T17:10:47.667Z,101793.47
2018-07-06T17:14:12.144Z,101798.95
2018-07-06T17:17:36.735Z,101799.81
2018-07-06T17:21:01.243Z,101796.52
2018-07-06T17:24:25.754Z,101796.92
2018-07-06T17:27:50.273Z,101794.78
2018-07-06T17:31:15.196Z,101796.74
2018-07-06T17:34:39.689Z,101798.73
2018-07-06T17:38:04.510Z,101791.52
2018-07-06T17:41:29.221Z,101796.16
2018-07-06T17:44:54.023Z,101797.25
2018-07-06T17:48:18.790Z,101789.37
2018-07-06T17:51:43.527Z,101798.34
2018-07-06T17:55:08.283Z,101789.50
2018-07-06T17:58:33.099Z,101792.43
2018-07-06T18:01:57.571Z,101794.12
2018-07-06T18:05:22.255Z,101786.65
2018-07-06T18:08:47.102Z,101789.82
2018-07-06T18:12:11.868Z,101785.53
2018-07-06T18:15:36.598Z,101787.18
2018-07-06T18:19:01.149Z,101791.42
2018-07-06T18:22:25.700Z,101789.14
2018-07-06T18:25:50.503Z,101785.08
2018-07-06T18:29:15.180Z,101790.53
2018-07-06T18:32:39.744Z,101784.95
2018-07-06T18:36:04.230Z,101789.05
2018-07-06T18:39:28.911Z,101786.06
2018-07-06T18:42:53.674Z,101781.27
2018-07-06T18:46:18.331Z,101783.77
2018-07-06T18:49:44.284Z,101777.73
2018-07-06T18:53:08.992Z,101776.29
2018-07-06T18:56:35.186Z,101780.64
2018-07-06T19:00:09.195Z,101778.12
2018-07-06T19:03:34.956Z,101782.13
2018-07-06T19:06:59.835Z,101787.09
2018-07-06T19:10:24.670Z,101790.77
2018-07-06T19:13:49.156Z,101796.64
2018-07-06T19:17:13.684Z,101790.77
2018-07-06T19:20:38.141Z,101798.97
2018-07-06T19:24:02.701Z,101807.16
2018-07-06T19:27:27.340Z,101812.66
2018-07-06T19:30:52.648Z,101821.64
2018-07-06T19:34:20.228Z,101824.97
2018-07-06T19:37:44.785Z,101823.39
2018-07-06T19:41:09.350Z,101832.03
2018-07-06T19:44:33.833Z,101840.51
2018-07-06T19:47:58.307Z,101840.23
2018-07-06T19:51:22.903Z,101844.06
2018-07-06T19:54:47.412Z,101851.68
2018-07-06T19:58:11.945Z,101856.22
2018-07-06T20:01:36.473Z,101865.75
2018-07-06T20:05:00.993Z,101870.75
2018-07-06T20:08:25.505Z,101871.43
2018-07-06T20:11:50.275Z,101877.98
2018-07-06T20:15:14.746Z,101879.70
2018-07-06T20:18:39.009Z,101875.75
2018-07-06T20:22:03.713Z,101882.12
2018-07-06T20:25:28.201Z,101876.59
2018-07-06T20:28:52.676Z,101879.71
2018-07-06T20:32:17.083Z,101881.92
2018-07-06T20:35:41.730Z,101894.95
2018-07-06T20:39:06.208Z,101892.43
2018-07-06T20:42:30.650Z,101892.55
2018-07-06T20:45:55.266Z,101897.83
2018-07-06T20:49:19.827Z,101896.52
2018-07-06T20:52:44.307Z,101901.86
2018-07-06T20:56:49.712Z,101902.50
2018-07-06T21:00:15.149Z,101903.18
2018-07-06T21:03:39.792Z,101904.95
2018-07-06T21:07:04.311Z,101907.87
2018-07-06T21:10:29.429Z,101905.56
2018-07-06T21:13:54.061Z,101904.41
2018-07-06T21:17:18.785Z,101914.20
2018-07-06T21:20:43.054Z,101916.92
2018-07-06T21:24:07.558Z,101922.39
2018-07-06T21:27:32.011Z,101924.57
2018-07-06T21:30:56.617Z,101926.30
2018-07-06T21:34:21.199Z,101930.20
2018-07-06T21:37:45.778Z,101928.83
2018-07-06T21:41:10.479Z,101932.28
2018-07-06T21:44:34.960Z,101932.98
2018-07-06T21:47:59.719Z,101935.75
2018-07-06T21:51:24.346Z,101938.77
2018-07-06T21:54:48.865Z,101940.30
2018-07-06T21:58:13.386Z,101940.14
2018-07-06T22:01:37.964Z,101942.05
2018-07-06T22:05:02.450Z,101945.81
2018-07-06T22:08:26.954Z,101945.90
2018-07-06T22:11:51.545Z,101941.95
2018-07-06T22:15:15.991Z,101935.78
2018-07-06T22:18:40.499Z,101942.73
2018-07-06T22:22:05.206Z,101944.58
2018-07-06T22:25:29.699Z,101939.98
2018-07-06T22:28:54.233Z,101950.70
2018-07-06T22:32:18.798Z,101939.28
2018-07-06T22:35:43.256Z,101943.20
2018-07-06T22:39:09.146Z,101945.02
2018-07-06T22:42:33.650Z,101944.46
2018-07-06T22:45:58.203Z,101947.80
2018-07-06T22:49:22.742Z,101949.68
2018-07-06T22:52:47.406Z,101948.89
2018-07-06T22:56:11.869Z,101950.03
2018-07-06T22:59:36.471Z,101946.34
2018-07-06T23:03:03.362Z,101946.61
2018-07-06T23:06:27.886Z,101942.05
2018-07-06T23:09:52.773Z,101948.28
2018-07-06T23:13:17.288Z,101944.76
2018-07-06T23:16:41.727Z,101950.84
2018-07-06T23:20:06.531Z,101954.57
2018-07-06T23:23:30.956Z,101952.20
2018-07-06T23:26:55.390Z,101954.17
2018-07-06T23:30:19.838Z,101958.71
2018-07-06T23:33:44.299Z,101958.30
2018-07-06T23:37:08.748Z,101957.80
2018-07-06T23:40:33.215Z,101961.05
2018-07-06T23:43:57.668Z,101967.55
2018-07-06T23:47:22.116Z,101967.56
2018-07-06T23:50:46.640Z,101971.22
2018-07-06T23:54:11.037Z,101965.33
2018-07-06T23:57:35.715Z,101968.72
